createdAt,value
2018-06-08T08:47:18.487Z,11.60
2018-06-08T08:49:47.169Z,12.20
2018-06-08T08:52:16.766Z,11.90
2018-06-08T08:54:47.144Z,12.67
2018-06-08T08:57:16.074Z,12.40
2018-06-08T08:59:52.365Z,11.97
2018-06-08T09:02:22.618Z,10.83
2018-06-08T09:05:13.895Z,10.70
2018-06-08T09:24:14.819Z,10.37
2018-06-08T09:26:43.781Z,9.70
2018-06-08T09:29:12.553Z,16.77
2018-06-08T09:37:29.238Z,12.13
2018-06-08T09:40:00.105Z,11.10
2018-06-08T09:42:29.919Z,11.13
2018-06-08T09:44:59.621Z,10.37
2018-06-08T11:46:47.124Z,27.87
2018-06-08T11:49:15.184Z,25.90
2018-06-08T11:51:43.690Z,24.73
2018-06-08T11:54:11.791Z,27.60
2018-06-08T11:56:39.797Z,23.57
2018-06-08T11:59:08.750Z,24.27
2018-06-08T12:01:36.767Z,24.80
2018-06-08T12:04:05.456Z,23.30
2018-06-08T12:06:34.363Z,23.73
2018-06-08T12:09:03.563Z,23.30
2018-06-08T12:11:31.543Z,22.50
2018-06-08T12:13:59.554Z,21.67
2018-06-08T12:16:27.580Z,24.23
2018-06-08T12:18:56.903Z,22.60
2018-06-08T12:32:58.501Z,20.67
2018-06-08T12:35:36.797Z,20.97
2018-06-08T12:38:05.429Z,21.93
2018-06-08T12:40:33.428Z,19.43
2018-06-08T12:43:01.449Z,22.17
2018-06-08T12:45:29.549Z,21.57
2018-06-08T12:47:57.672Z,23.03
2018-06-08T12:50:26.160Z,23.40
2018-06-08T12:53:11.483Z,23.97
2018-06-08T12:55:50.737Z,22.30
2018-06-08T12:58:18.995Z,19.67
2018-06-08T13:00:47.000Z,24.97
2018-06-08T13:35:39.721Z,26.20
2018-06-08T13:38:07.718Z,27.87
2018-06-08T13:40:35.726Z,32.90
2018-06-08T13:43:03.930Z,30.00
2018-06-08T13:45:31.943Z,30.00
2018-06-08T13:48:08.603Z,31.90
2018-06-08T13:51:00.939Z,32.67
2018-06-08T13:53:29.690Z,31.67
2018-06-08T13:55:58.141Z,30.80
2018-06-08T13:58:26.125Z,32.27
2018-06-08T14:06:32.745Z,30.10
2018-06-08T14:09:00.792Z,31.37
2018-06-08T14:11:30.922Z,31.17
2018-06-08T14:13:58.943Z,28.20
2018-06-08T14:16:26.985Z,29.80
2018-06-08T14:18:55.028Z,29.10
2018-06-08T14:21:23.045Z,29.17
2018-06-08T14:23:51.045Z,30.13
2018-06-08T14:26:19.033Z,31.33
2018-06-08T14:28:47.109Z,29.13
2018-06-08T14:31:16.117Z,30.40
2018-06-08T14:33:44.518Z,30.07
2018-06-08T14:36:12.776Z,28.70
2018-06-08T14:38:40.920Z,28.17
2018-06-08T14:41:08.935Z,29.47
2018-06-08T14:43:36.991Z,30.77
2018-06-08T14:46:05.013Z,29.50
2018-06-08T14:48:33.011Z,29.50
2018-06-08T14:51:01.084Z,30.00
2018-06-08T14:53:29.088Z,29.67
2018-06-08T14:55:57.095Z,28.47
2018-06-08T14:58:25.307Z,29.67
2018-06-08T15:00:53.349Z,29.07
2018-06-08T15:03:21.361Z,27.60
2018-06-08T15:18:28.749Z,23.07
2018-06-08T15:20:57.493Z,26.23
2018-06-08T15:23:25.698Z,27.20
2018-06-08T15:25:53.754Z,26.70
2018-06-08T15:28:21.750Z,24.73
2018-06-08T15:30:49.774Z,25.73
2018-06-08T15:33:18.732Z,25.63
2018-06-08T15:35:46.867Z,23.33
2018-06-08T15:38:14.877Z,24.00
2018-06-08T15:40:42.954Z,23.40
2018-06-08T15:43:11.098Z,22.27
2018-06-08T15:45:39.454Z,22.53
2018-06-08T15:48:07.520Z,20.43
2018-06-08T15:50:35.525Z,22.80
2018-06-08T15:53:03.606Z,19.90
2018-06-08T15:55:32.353Z,19.50
2018-06-08T15:58:01.249Z,19.70
2018-06-08T16:00:29.813Z,20.00
2018-06-08T16:02:57.848Z,18.00
2018-06-08T16:05:26.051Z,18.57
2018-06-08T16:07:54.229Z,17.50
2018-06-08T16:10:22.241Z,17.23
2018-06-08T16:12:50.246Z,17.63
2018-06-08T16:15:18.267Z,17.13
2018-06-08T16:17:47.127Z,16.77
2018-06-08T16:20:15.336Z,17.17
2018-06-08T16:22:44.110Z,16.63
2018-06-08T16:25:13.059Z,17.37
2018-06-08T16:27:41.756Z,15.83
2018-06-08T16:30:09.978Z,16.77
2018-06-08T16:32:38.222Z,17.37
2018-06-08T16:35:07.082Z,15.97
2018-06-08T16:37:35.299Z,15.20
2018-06-08T16:40:03.901Z,15.93
2018-06-08T16:42:31.949Z,16.70
2018-06-08T16:44:59.957Z,15.93
2018-06-08T16:47:28.917Z,15.57
2018-06-08T16:49:57.681Z,16.43
2018-06-08T16:52:25.755Z,14.83
2018-06-08T16:54:54.061Z,14.03
2018-06-08T16:57:22.113Z,16.07
2018-06-08T16:59:50.504Z,15.40
2018-06-08T17:02:18.548Z,14.97
2018-06-08T17:04:46.647Z,15.50
2018-06-08T17:07:14.903Z,15.87
2018-06-08T17:09:43.201Z,15.07
2018-06-08T17:12:11.735Z,17.43
2018-06-08T17:14:39.729Z,15.43
2018-06-08T17:17:08.158Z,15.47
2018-06-08T17:19:36.304Z,15.47
2018-06-08T17:22:05.289Z,14.30
2018-06-08T17:24:33.396Z,13.37
2018-06-08T17:27:02.137Z,13.33
2018-06-08T17:29:30.704Z,12.93
2018-06-08T17:31:59.397Z,13.93
2018-06-08T17:34:27.411Z,14.27
2018-06-08T17:36:55.632Z,13.50
2018-06-08T17:39:24.714Z,13.60
2018-06-08T17:41:53.049Z,13.00
2018-06-08T17:44:21.285Z,13.87
2018-06-08T17:46:50.013Z,13.37
2018-06-08T17:49:18.153Z,13.10
2018-06-08T17:51:46.218Z,13.60
2018-06-08T17:54:14.742Z,14.03
2018-06-08T17:56:43.137Z,15.03
2018-06-08T17:59:11.419Z,13.23
2018-06-08T18:01:39.506Z,13.97
2018-06-08T18:04:08.335Z,13.47
2018-06-08T18:06:36.407Z,12.50
2018-06-08T18:09:05.984Z,13.67
2018-06-08T18:11:34.016Z,12.50
2018-06-08T18:14:02.743Z,13.97
2018-06-08T18:16:30.806Z,11.90
2018-06-08T18:18:58.958Z,13.27
2018-06-08T18:21:26.968Z,13.90
2018-06-08T18:23:55.638Z,13.27
2018-06-08T18:26:23.641Z,14.87
2018-06-08T18:28:51.632Z,13.80
2018-06-08T18:31:19.688Z,15.10
2018-06-08T18:33:48.307Z,13.67
2018-06-08T18:36:16.831Z,13.47
2018-06-08T18:38:45.161Z,13.47
2018-06-08T18:41:48.272Z,14.77
2018-06-08T18:46:52.622Z,14.47
2018-06-08T18:49:20.673Z,13.40
2018-06-08T18:51:48.705Z,14.50
2018-06-08T18:54:16.788Z,13.40
2018-06-08T18:56:44.828Z,14.20
2018-06-08T18:59:12.919Z,14.20
2018-06-08T19:01:41.887Z,13.73
2018-06-08T19:04:10.829Z,14.13
2018-06-08T19:06:38.857Z,12.87
2018-06-08T19:09:07.897Z,14.90
2018-06-08T19:11:37.051Z,14.20
2018-06-08T19:14:05.428Z,14.13
2018-06-08T19:16:33.518Z,13.90
2018-06-08T19:19:02.525Z,14.20
2018-06-08T19:21:32.827Z,14.00
2018-06-08T19:24:00.880Z,13.87
2018-06-08T19:26:29.782Z,13.97
2018-06-08T19:28:59.688Z,14.80
2018-06-08T19:31:28.045Z,14.00
2018-06-08T19:33:57.630Z,14.73
2018-06-08T19:36:27.541Z,14.63
2018-06-08T19:55:05.743Z,14.83
2018-06-08T19:57:33.814Z,14.53
2018-06-08T20:00:03.804Z,14.47
2018-06-08T20:02:31.930Z,14.17
2018-06-08T20:05:00.176Z,14.90
2018-06-08T20:07:28.935Z,15.77
2018-06-08T20:09:57.072Z,14.70
2018-06-08T20:12:25.301Z,14.87
2018-06-08T20:14:53.489Z,15.83
2018-06-08T20:17:21.549Z,15.30
2018-06-08T20:19:49.612Z,17.00
2018-06-08T20:22:17.638Z,16.67
2018-06-08T20:24:46.046Z,15.60
2018-06-08T20:27:14.443Z,16.27
2018-06-08T20:29:42.659Z,14.90
2018-06-08T20:32:11.658Z,15.30
2018-06-08T20:34:39.780Z,15.03
2018-06-08T20:37:08.258Z,16.00
2018-06-08T20:39:36.399Z,16.67
2018-06-08T20:42:05.903Z,14.73
2018-06-08T20:44:35.249Z,13.97
2018-06-08T20:47:03.489Z,13.00
2018-06-08T20:49:31.524Z,14.30
2018-06-08T20:51:59.858Z,13.70
2018-06-08T20:54:27.961Z,12.07
2018-06-08T20:57:01.859Z,11.10
2018-06-08T20:59:30.006Z,10.27
2018-06-08T21:01:58.259Z,9.10
2018-06-08T21:04:26.920Z,8.40
2018-06-08T21:06:55.241Z,8.23
2018-06-08T21:09:23.636Z,8.07
2018-06-08T21:11:54.285Z,7.80
2018-06-08T21:14:23.638Z,7.60
2018-06-08T21:16:52.650Z,7.73
2018-06-08T21:19:20.712Z,8.90
2018-06-08T21:21:48.877Z,9.43
2018-06-08T21:24:17.018Z,6.87
2018-06-08T21:26:45.610Z,6.80
2018-06-08T21:29:16.796Z,6.67
2018-06-08T21:31:45.005Z,7.63
2018-06-08T21:34:13.230Z,8.03
2018-06-08T21:36:41.441Z,7.13
2018-06-08T21:39:09.453Z,7.00
2018-06-08T21:41:37.542Z,7.90
2018-06-08T21:44:05.683Z,7.27
2018-06-08T21:46:33.928Z,7.97
2018-06-08T21:49:02.115Z,6.40
2018-06-08T21:51:30.362Z,6.97
2018-06-08T21:53:58.530Z,5.93
2018-06-08T21:56:26.766Z,7.00
2018-06-08T21:58:54.998Z,6.73
2018-06-08T22:01:23.726Z,7.27
2018-06-08T22:03:52.159Z,6.80
2018-06-08T22:06:20.660Z,5.70
2018-06-08T22:08:50.970Z,6.07
2018-06-08T22:11:19.491Z,6.20
2018-06-08T22:13:47.795Z,6.73
2018-06-08T22:16:15.929Z,5.63
2018-06-08T22:18:44.190Z,6.20
2018-06-08T22:21:12.449Z,8.23
2018-06-08T22:23:40.459Z,5.77
2018-06-08T22:26:09.885Z,5.93
2018-06-08T22:28:38.059Z,5.27
2018-06-08T22:31:06.826Z,5.60
2018-06-08T22:33:34.882Z,5.23
2018-06-08T22:36:03.315Z,5.90
2018-06-08T22:38:31.468Z,5.67
2018-06-08T22:40:59.722Z,6.03
2018-06-08T22:43:27.990Z,5.50
2018-06-08T22:45:57.090Z,5.50
2018-06-08T22:48:25.422Z,5.57
2018-06-08T22:50:54.339Z,6.30
2018-06-08T22:53:22.646Z,5.53
2018-06-08T22:55:50.810Z,6.20
2018-06-08T22:58:19.081Z,5.30
2018-06-08T23:00:47.089Z,6.13
2018-06-08T23:03:21.620Z,6.03
2018-06-08T23:05:49.652Z,6.30
2018-06-08T23:08:17.753Z,5.70
2018-06-08T23:10:45.809Z,5.93
2018-06-08T23:13:13.789Z,6.03
2018-06-08T23:15:41.928Z,5.00
2018-06-08T23:18:10.041Z,5.90
2018-06-08T23:20:38.093Z,5.67
2018-06-08T23:23:06.149Z,5.20
2018-06-08T23:25:34.625Z,6.83
2018-06-08T23:28:03.798Z,4.70
2018-06-08T23:30:31.858Z,5.67
2018-06-08T23:33:00.047Z,6.60
2018-06-08T23:35:28.213Z,7.03
2018-06-08T23:37:56.250Z,5.77
2018-06-08T23:40:24.269Z,6.77
2018-06-08T23:42:52.671Z,5.50
2018-06-08T23:45:21.112Z,5.80
2018-06-08T23:47:49.201Z,6.27
2018-06-08T23:50:17.374Z,6.23
2018-06-08T23:52:45.434Z,6.00
2018-06-08T23:55:13.539Z,6.57
2018-06-08T23:57:41.580Z,6.43
